Time;durP1;ratioP1;P1;durP2;ratioP2;P2;SDS_P1;SDS_P2;PMS_P1;PMS_P2;Temp;Humidity;BMP_temperature;BMP_pressure;BME280_temperature;BME280_humidity;BME280_pressure;Samples;Min_cycle;Max_cycle;Signal;HPM_P1;HPM_P2
2021/12/24 00:00:16;;;;;;;27.98;6.65;;;6.10;99.90;;;;;;5082915;28;20029;-74
2021/12/24 00:02:42;;;;;;;21.67;6.32;;;6.10;99.90;;;;;;5083523;28;20048;-72
2021/12/24 00:05:08;;;;;;;24.55;7.38;;;6.00;99.90;;;;;;5084225;28;20035;-72
2021/12/24 00:07:34;;;;;;;25.95;7.30;;;6.00;99.90;;;;;;5081239;28;20032;-73
2021/12/24 00:10:00;;;;;;;23.80;8.13;;;5.90;99.90;;;;;;5083584;28;20054;-72
2021/12/24 00:12:29;;;;;;;27.63;7.88;;;5.80;99.90;;;;;;5084235;28;20251;-72
2021/12/24 00:15:00;;;;;;;25.20;7.93;;;5.90;99.90;;;;;;5084327;28;20087;-73
2021/12/24 00:17:30;;;;;;;26.02;7.53;;;6.10;99.90;;;;;;5084114;28;20111;-73
2021/12/24 00:20:19;;;;;;;23.58;8.00;;;6.10;99.90;;;;;;5084340;28;20052;-73
2021/12/24 00:23:13;;;;;;;25.58;8.35;;;6.20;99.90;;;;;;5083504;28;20202;-73
2021/12/24 00:36:30;;;;;;;24.85;7.95;;;6.60;99.90;;;;;;5083157;28;20025;-72
2021/12/24 00:38:57;;;;;;;25.88;7.45;;;6.50;99.90;;;;;;5084033;28;20227;-72
2021/12/24 00:41:22;;;;;;;22.70;7.28;;;6.40;99.90;;;;;;5083824;28;20051;-71
2021/12/24 00:43:48;;;;;;;23.98;8.00;;;6.30;99.90;;;;;;5084111;28;20025;-72
2021/12/24 00:46:13;;;;;;;25.00;8.55;;;6.30;99.90;;;;;;5083611;28;20028;-72
2021/12/24 00:48:39;;;;;;;25.75;9.00;;;6.30;99.90;;;;;;5084007;28;20084;-71
2021/12/24 00:51:19;;;;;;;23.55;7.57;;;6.30;99.90;;;;;;5084024;28;20039;-72
2021/12/24 00:56:25;;;;;;;26.17;9.27;;;6.40;99.90;;;;;;5082465;28;20036;-71
2021/12/24 00:58:51;;;;;;;25.85;8.70;;;6.50;99.90;;;;;;5083587;28;20035;-71
2021/12/24 01:01:18;;;;;;;30.10;7.47;;;6.50;99.90;;;;;;5083747;28;20084;-72
2021/12/24 01:03:43;;;;;;;22.05;7.18;;;6.60;99.90;;;;;;5083817;28;20058;-72
2021/12/24 01:06:09;;;;;;;22.05;6.70;;;6.60;99.90;;;;;;5065810;28;20028;-72
2021/12/24 01:08:35;;;;;;;15.60;6.55;;;6.70;99.90;;;;;;5081895;28;20103;-71
2021/12/24 01:11:05;;;;;;;22.48;7.80;;;6.70;99.90;;;;;;5083427;28;20250;-72
2021/12/24 01:13:30;;;;;;;25.90;8.38;;;6.60;99.90;;;;;;5084050;28;20032;-71
2021/12/24 01:16:19;;;;;;;25.75;7.88;;;6.50;99.90;;;;;;5095663;28;20035;-72
2021/12/24 01:19:00;;;;;;;23.52;8.23;;;6.50;99.90;;;;;;5094668;28;20028;-72
2021/12/24 01:21:45;;;;;;;24.02;7.43;;;6.40;99.90;;;;;;5095901;28;20020;-72
2021/12/24 01:24:18;;;;;;;21.88;7.85;;;6.30;99.90;;;;;;5094307;28;20024;-74
2021/12/24 01:27:06;;;;;;;21.13;7.88;;;6.30;99.90;;;;;;5088610;28;20263;-71
2021/12/24 01:37:59;;;;;;;21.30;6.88;;;6.10;99.90;;;;;;5085875;28;20039;-70
2021/12/24 01:40:40;;;;;;;20.38;7.45;;;6.00;99.90;;;;;;5086808;28;20029;-71
2021/12/24 01:43:06;;;;;;;24.17;7.37;;;6.00;99.90;;;;;;5086236;28;20039;-71
2021/12/24 01:45:35;;;;;;;16.90;6.78;;;6.10;99.90;;;;;;5069377;28;20020;-71
2021/12/24 01:48:06;;;;;;;25.58;8.43;;;6.20;99.90;;;;;;5086892;28;20031;-72
2021/12/24 01:50:33;;;;;;;20.27;7.45;;;6.30;99.90;;;;;;5087025;28;20050;-71
2021/12/24 01:53:01;;;;;;;25.88;6.57;;;6.40;99.90;;;;;;5086028;28;20207;-71
2021/12/24 01:55:28;;;;;;;16.30;7.40;;;6.50;99.90;;;;;;5087018;28;20199;-71
2021/12/24 01:57:54;;;;;;;24.25;7.35;;;6.60;99.90;;;;;;5086782;28;20036;-71
2021/12/24 02:00:25;;;;;;;21.25;7.20;;;6.70;99.90;;;;;;5086533;28;20020;-72
2021/12/24 02:02:50;;;;;;;16.98;7.10;;;6.70;99.90;;;;;;5086838;28;20207;-71
2021/12/24 02:05:17;;;;;;;16.77;7.45;;;6.70;99.90;;;;;;5086796;28;20052;-72
2021/12/24 02:07:43;;;;;;;23.17;7.25;;;6.80;99.90;;;;;;5067489;28;20024;-72
2021/12/24 02:10:11;;;;;;;21.13;7.13;;;6.80;99.90;;;;;;5086727;28;20353;-71
2021/12/24 02:12:38;;;;;;;19.23;6.53;;;6.80;99.90;;;;;;5086780;28;20020;-71
2021/12/24 02:15:09;;;;;;;19.70;7.00;;;6.90;99.90;;;;;;5086746;28;20099;-72
2021/12/24 02:17:54;;;;;;;21.45;6.32;;;6.90;99.90;;;;;;5086489;28;20036;-71
2021/12/24 02:28:40;;;;;;;18.92;5.80;;;6.90;99.90;;;;;;5084783;28;20060;-71
2021/12/24 02:31:11;;;;;;;24.25;6.65;;;6.90;99.90;;;;;;5086201;28;20349;-71
2021/12/24 02:33:38;;;;;;;21.35;6.00;;;6.70;99.90;;;;;;5084212;28;20075;-71
2021/12/24 02:36:04;;;;;;;17.92;5.90;;;6.60;99.90;;;;;;5085313;28;20024;-71
2021/12/24 02:38:30;;;;;;;16.50;6.10;;;6.50;99.90;;;;;;5084908;28;20024;-71
2021/12/24 02:40:56;;;;;;;20.02;6.38;;;6.40;99.90;;;;;;5085963;28;20215;-71
2021/12/24 02:43:24;;;;;;;22.45;7.03;;;6.30;99.90;;;;;;5084964;28;20028;-70
2021/12/24 02:45:53;;;;;;;22.30;6.60;;;6.10;99.90;;;;;;5085641;28;20016;-70
2021/12/24 02:48:56;;;;;;;24.90;7.28;;;6.10;99.90;;;;;;5084502;28;20052;-72
2021/12/24 02:53:58;;;;;;;22.20;6.15;;;6.10;99.90;;;;;;5071070;28;20055;-71
2021/12/24 02:56:28;;;;;;;24.00;6.20;;;6.10;99.90;;;;;;5085658;28;20087;-71
2021/12/24 02:58:55;;;;;;;21.83;6.38;;;6.00;99.90;;;;;;5084149;28;20024;-72
2021/12/24 03:01:24;;;;;;;25.83;5.90;;;5.90;99.90;;;;;;5084498;28;20091;-71
2021/12/24 03:03:51;;;;;;;20.17;5.80;;;5.90;99.90;;;;;;5085550;28;20021;-71
2021/12/24 03:06:18;;;;;;;30.15;7.13;;;5.90;99.90;;;;;;5085680;28;20020;-71
2021/12/24 03:08:44;;;;;;;25.17;6.82;;;6.00;99.90;;;;;;5082557;28;20087;-73
2021/12/24 03:11:10;;;;;;;27.05;7.20;;;6.00;99.90;;;;;;5084083;28;20073;-71
2021/12/24 03:13:37;;;;;;;27.10;6.78;;;5.90;99.90;;;;;;5067601;28;20021;-71
2021/12/24 03:16:03;;;;;;;24.30;7.28;;;5.90;99.90;;;;;;5085515;28;20028;-71
2021/12/24 03:18:32;;;;;;;33.75;7.35;;;5.80;99.90;;;;;;5084082;28;20025;-71
2021/12/24 03:21:05;;;;;;;25.30;7.63;;;5.80;99.90;;;;;;5083991;28;20025;-71
2021/12/24 03:23:39;;;;;;;25.85;6.72;;;5.70;99.90;;;;;;5085283;28;20322;-71
2021/12/24 03:26:07;;;;;;;33.15;6.18;;;5.70;99.90;;;;;;5084841;28;20040;-72
2021/12/24 03:28:33;;;;;;;25.73;7.10;;;5.80;99.90;;;;;;5083425;28;20028;-70
2021/12/24 03:31:00;;;;;;;17.88;5.97;;;5.80;99.90;;;;;;5083847;28;20023;-71
2021/12/24 03:33:26;;;;;;;21.30;6.15;;;5.80;99.90;;;;;;5067300;28;20027;-71
2021/12/24 03:35:52;;;;;;;18.30;6.20;;;6.00;99.90;;;;;;5085129;28;20013;-71
2021/12/24 03:38:17;;;;;;;29.48;6.38;;;6.10;99.90;;;;;;5083763;28;20096;-71
2021/12/24 03:40:43;;;;;;;31.60;6.25;;;6.10;99.90;;;;;;5084524;28;20061;-71
2021/12/24 03:43:09;;;;;;;20.90;5.88;;;6.20;99.90;;;;;;5084836;28;20067;-71
2021/12/24 03:45:43;;;;;;;31.08;5.85;;;6.30;99.90;;;;;;5083436;28;20124;-71
2021/12/24 03:48:21;;;;;;;23.85;7.07;;;6.40;99.90;;;;;;5084573;28;20037;-71
2021/12/24 03:51:26;;;;;;;23.92;6.05;;;6.50;99.90;;;;;;5084614;28;20028;-71
2021/12/24 03:56:18;;;;;;;28.30;5.80;;;6.50;99.90;;;;;;5083645;28;20021;-71
2021/12/24 03:58:44;;;;;;;21.27;5.50;;;6.60;99.90;;;;;;5083322;28;20048;-72
2021/12/24 04:01:10;;;;;;;15.80;4.93;;;6.60;99.90;;;;;;5084438;28;20023;-71
2021/12/24 04:03:35;;;;;;;26.92;6.18;;;6.60;99.90;;;;;;5083510;28;20029;-71
2021/12/24 04:06:01;;;;;;;24.38;5.75;;;6.60;99.90;;;;;;5084417;28;20017;-71
2021/12/24 04:08:27;;;;;;;21.10;5.18;;;6.60;99.90;;;;;;5083301;28;20024;-71
2021/12/24 04:10:53;;;;;;;27.90;5.70;;;6.60;99.90;;;;;;5082544;28;20095;-72
2021/12/24 04:13:18;;;;;;;22.98;5.32;;;6.50;99.90;;;;;;5084400;28;20299;-71
2021/12/24 04:15:44;;;;;;;22.20;5.57;;;6.50;99.90;;;;;;5084581;28;20042;-71
2021/12/24 04:18:18;;;;;;;23.73;5.30;;;6.40;99.90;;;;;;5084449;28;20418;-71
2021/12/24 04:26:15;;;;;;;33.65;6.18;;;6.20;99.90;;;;;;5097644;28;20056;-71
2021/12/24 04:28:41;;;;;;;24.63;5.45;;;6.10;99.90;;;;;;5094188;28;20024;-71
2021/12/24 04:31:07;;;;;;;19.67;4.80;;;6.10;99.90;;;;;;5091533;28;20196;-71
2021/12/24 04:33:37;;;;;;;19.00;5.97;;;6.10;99.90;;;;;;5088657;28;20190;-71
2021/12/24 05:03:43;;;;;;;23.00;6.22;;;5.50;99.90;;;;;;5087166;28;20059;-72
2021/12/24 05:06:15;;;;;;;27.52;5.93;;;5.50;99.90;;;;;;5087963;28;20077;-71
2021/12/24 05:08:54;;;;;;;26.08;5.72;;;5.60;99.90;;;;;;5087622;28;20021;-70
2021/12/24 05:11:21;;;;;;;16.17;5.32;;;5.70;99.90;;;;;;5085053;28;20027;-71
2021/12/24 05:13:48;;;;;;;25.50;5.68;;;5.90;99.90;;;;;;5086691;28;20047;-71
2021/12/24 05:16:26;;;;;;;17.95;5.05;;;6.00;99.90;;;;;;5070003;28;20207;-71
2021/12/24 05:21:42;;;;;;;19.85;5.20;;;5.90;99.90;;;;;;5086863;28;20024;-70
2021/12/24 05:24:12;;;;;;;18.27;4.75;;;5.80;99.90;;;;;;5087455;28;20021;-72
2021/12/24 05:26:39;;;;;;;18.63;5.78;;;5.70;99.90;;;;;;5086108;28;20051;-71
2021/12/24 05:29:07;;;;;;;18.90;6.13;;;5.70;99.90;;;;;;5069234;28;20017;-71
2021/12/24 05:31:33;;;;;;;21.60;6.68;;;5.60;99.90;;;;;;5086017;28;20036;-70
2021/12/24 05:34:00;;;;;;;23.13;6.18;;;5.60;99.90;;;;;;5087369;28;20021;-70
2021/12/24 05:36:26;;;;;;;17.88;6.70;;;5.70;99.90;;;;;;5085919;28;20231;-70
2021/12/24 05:38:51;;;;;;;28.55;7.25;;;5.80;99.90;;;;;;5086101;28;20358;-71
2021/12/24 05:41:21;;;;;;;24.08;6.53;;;5.80;99.90;;;;;;5085931;28;20062;-70
2021/12/24 05:43:48;;;;;;;16.60;6.88;;;5.90;99.90;;;;;;5086967;28;20028;-70
2021/12/24 05:46:14;;;;;;;28.10;8.07;;;5.80;99.90;;;;;;5086976;28;20047;-71
2021/12/24 05:48:40;;;;;;;19.25;7.25;;;5.80;99.90;;;;;;5086117;28;20020;-72
2021/12/24 05:51:06;;;;;;;24.02;7.95;;;5.70;99.90;;;;;;5086925;28;20056;-72
2021/12/24 05:53:32;;;;;;;31.50;8.63;;;5.70;99.90;;;;;;5086729;28;20091;-71
2021/12/24 05:55:58;;;;;;;23.13;7.18;;;5.60;99.90;;;;;;5085983;28;20036;-71
2021/12/24 05:58:24;;;;;;;32.05;7.15;;;5.60;99.90;;;;;;5085672;28;20103;-71
2021/12/24 06:00:50;;;;;;;27.52;7.75;;;5.60;99.90;;;;;;5086759;28;20044;-72
2021/12/24 06:03:16;;;;;;;24.58;7.13;;;5.50;99.90;;;;;;5068903;28;20050;-71
2021/12/24 06:05:44;;;;;;;25.98;7.53;;;5.40;99.90;;;;;;5086869;28;20047;-72
2021/12/24 06:08:10;;;;;;;25.17;7.22;;;5.40;99.90;;;;;;5085295;28;20012;-71
2021/12/24 06:10:36;;;;;;;25.17;7.22;;;5.40;99.90;;;;;;5085561;28;20020;-71
2021/12/24 06:13:04;;;;;;;21.13;7.28;;;5.30;99.90;;;;;;5085190;28;20028;-71
2021/12/24 06:15:33;;;;;;;21.30;7.43;;;5.40;99.90;;;;;;5085387;28;20020;-71
2021/12/24 06:17:59;;;;;;;26.08;7.55;;;5.40;99.90;;;;;;5086338;28;20020;-71
2021/12/24 06:20:26;;;;;;;35.95;8.60;;;5.30;99.90;;;;;;5086351;28;20070;-71
2021/12/24 06:22:52;;;;;;;24.95;8.07;;;5.20;99.90;;;;;;5086373;28;20020;-71
2021/12/24 06:25:19;;;;;;;31.42;7.53;;;5.20;99.90;;;;;;5086322;28;20032;-71
2021/12/24 06:27:47;;;;;;;30.05;8.55;;;5.20;99.90;;;;;;5085102;28;20262;-72
2021/12/24 06:30:14;;;;;;;23.30;7.72;;;5.10;99.90;;;;;;5085915;28;20031;-71
2021/12/24 06:32:40;;;;;;;22.75;7.70;;;5.10;99.90;;;;;;5086097;28;20035;-70
2021/12/24 06:35:09;;;;;;;23.75;8.13;;;5.20;99.90;;;;;;5086470;28;20208;-72
2021/12/24 06:37:36;;;;;;;28.33;7.93;;;5.20;99.90;;;;;;5086191;28;20028;-71
2021/12/24 06:40:03;;;;;;;17.02;6.60;;;5.10;99.90;;;;;;5085051;28;20087;-71
2021/12/24 06:42:29;;;;;;;28.35;7.40;;;5.10;99.90;;;;;;5086005;28;20104;-71
2021/12/24 06:44:54;;;;;;;17.30;6.03;;;5.10;99.90;;;;;;5085742;28;20033;-71
2021/12/24 06:47:20;;;;;;;20.17;6.60;;;5.10;99.90;;;;;;5085990;28;20052;-71
2021/12/24 06:49:46;;;;;;;30.02;8.68;;;5.20;99.90;;;;;;5085807;28;20024;-72
2021/12/24 06:52:11;;;;;;;23.33;7.18;;;5.10;99.90;;;;;;5084803;28;20057;-72
2021/12/24 06:54:37;;;;;;;35.40;9.07;;;5.10;99.90;;;;;;5085724;28;20031;-72
2021/12/24 06:57:04;;;;;;;31.15;10.07;;;5.10;99.90;;;;;;5085726;28;20024;-72
2021/12/24 06:59:30;;;;;;;29.83;9.10;;;5.10;99.90;;;;;;5085446;28;20028;-71
2021/12/24 07:01:59;;;;;;;26.05;9.23;;;5.10;99.90;;;;;;5085653;28;20042;-72
2021/12/24 07:04:26;;;;;;;27.55;8.75;;;5.10;99.90;;;;;;5085548;28;20032;-71
2021/12/24 07:06:52;;;;;;;28.92;10.45;;;5.10;99.90;;;;;;5085371;28;20330;-71
2021/12/24 07:09:18;;;;;;;29.80;10.60;;;5.20;99.90;;;;;;5067604;28;20020;-72
2021/12/24 07:11:43;;;;;;;28.15;10.80;;;5.10;99.90;;;;;;5085535;28;20295;-72
2021/12/24 07:14:09;;;;;;;33.28;11.93;;;5.20;99.90;;;;;;5083114;28;20016;-71
2021/12/24 07:16:35;;;;;;;36.45;13.15;;;5.30;99.90;;;;;;5085387;28;20024;-72
2021/12/24 07:19:01;;;;;;;37.17;11.65;;;5.40;99.90;;;;;;5084975;28;20031;-72
2021/12/24 07:21:28;;;;;;;30.77;11.93;;;5.40;99.90;;;;;;5085364;28;20021;-72
2021/12/24 07:23:53;;;;;;;42.75;11.90;;;5.40;99.90;;;;;;5085047;28;20027;-71
2021/12/24 07:26:20;;;;;;;25.15;10.55;;;5.30;99.90;;;;;;5085272;28;20059;-71
2021/12/24 07:28:47;;;;;;;39.38;11.73;;;5.30;99.90;;;;;;5084862;28;20058;-73
2021/12/24 07:31:13;;;;;;;52.97;13.13;;;5.30;99.90;;;;;;5088950;28;20018;-71
2021/12/24 07:33:39;;;;;;;68.90;13.00;;;5.40;99.90;;;;;;5094775;28;20076;-72
2021/12/24 07:36:05;;;;;;;61.53;12.60;;;5.50;99.90;;;;;;5093568;28;20031;-72
2021/12/24 07:38:30;;;;;;;47.78;10.05;;;5.70;99.90;;;;;;5093142;28;20021;-72
2021/12/24 07:40:56;;;;;;;37.72;9.25;;;5.70;99.90;;;;;;5090294;28;20021;-72
2021/12/24 07:43:22;;;;;;;34.42;9.00;;;5.80;99.90;;;;;;5085856;28;20048;-72
2021/12/24 07:45:49;;;;;;;39.53;9.27;;;5.80;99.90;;;;;;5084917;28;20314;-73
2021/12/24 07:48:16;;;;;;;39.72;9.20;;;5.90;99.90;;;;;;5083656;28;20109;-72
2021/12/24 07:53:31;;;;;;;45.53;9.35;;;6.00;99.90;;;;;;5069632;28;20086;-72
2021/12/24 07:55:58;;;;;;;33.17;9.82;;;6.10;99.90;;;;;;5084642;28;20033;-72
2021/12/24 07:58:24;;;;;;;37.83;9.18;;;6.20;99.90;;;;;;5083236;28;20050;-72
2021/12/24 08:00:51;;;;;;;39.58;11.88;;;6.20;99.90;;;;;;5084352;28;20017;-72
2021/12/24 08:03:17;;;;;;;37.17;10.15;;;6.30;99.90;;;;;;5083258;28;20033;-72
2021/12/24 08:05:45;;;;;;;24.13;8.48;;;6.20;99.90;;;;;;5084622;28;20025;-72
2021/12/24 08:08:11;;;;;;;26.00;9.27;;;6.20;99.90;;;;;;5083140;28;20020;-72
2021/12/24 08:10:38;;;;;;;38.40;12.50;;;6.00;99.90;;;;;;5084490;28;20184;-72
2021/12/24 08:13:04;;;;;;;41.22;8.30;;;6.00;99.90;;;;;;5065018;28;20140;-72
2021/12/24 08:15:31;;;;;;;40.15;8.23;;;6.00;99.90;;;;;;5083852;28;20358;-73
2021/12/24 08:17:57;;;;;;;35.72;9.27;;;6.10;99.90;;;;;;5084348;28;20016;-72
2021/12/24 08:20:25;;;;;;;42.97;9.65;;;6.20;99.90;;;;;;5084312;28;20083;-73
2021/12/24 08:22:53;;;;;;;53.55;11.80;;;6.30;99.90;;;;;;5084062;28;20054;-72
2021/12/24 08:25:19;;;;;;;64.47;11.18;;;6.50;99.90;;;;;;5083029;28;20207;-72
2021/12/24 08:27:46;;;;;;;55.13;10.30;;;6.50;99.90;;;;;;5083774;28;20339;-73
2021/12/24 08:30:12;;;;;;;34.25;10.30;;;6.60;99.90;;;;;;5081945;28;20013;-72
2021/12/24 08:32:40;;;;;;;40.88;11.43;;;6.80;99.90;;;;;;5084006;28;20051;-72
2021/12/24 08:35:10;;;;;;;86.65;14.43;;;7.00;99.90;;;;;;5083894;28;20073;-73
2021/12/24 08:37:36;;;;;;;73.45;12.68;;;7.10;99.90;;;;;;5082884;28;20020;-72
2021/12/24 08:40:03;;;;;;;91.15;13.50;;;7.20;99.90;;;;;;5084106;28;20020;-72
2021/12/24 08:42:28;;;;;;;72.53;12.93;;;7.30;99.90;;;;;;5082947;28;20024;-72
2021/12/24 08:44:54;;;;;;;55.90;11.52;;;7.40;99.90;;;;;;5083428;28;20211;-72
2021/12/24 08:47:20;;;;;;;168.40;21.23;;;7.40;99.90;;;;;;5083602;28;20043;-71
2021/12/24 08:49:46;;;;;;;116.65;18.60;;;7.40;99.90;;;;;;5083962;28;20028;-72
2021/12/24 08:52:11;;;;;;;134.63;17.35;;;7.40;99.90;;;;;;5083720;28;20020;-70
2021/12/24 08:54:37;;;;;;;210.13;21.45;;;7.50;99.90;;;;;;5082870;28;20307;-72
2021/12/24 08:57:03;;;;;;;126.07;16.63;;;7.50;99.90;;;;;;5083939;28;20025;-72
2021/12/24 08:59:29;;;;;;;95.35;15.57;;;7.50;99.90;;;;;;5083581;28;20025;-72
2021/12/24 09:01:58;;;;;;;79.32;13.80;;;7.60;99.90;;;;;;5083878;28;20331;-71
2021/12/24 09:04:24;;;;;;;88.60;12.55;;;7.60;99.90;;;;;;5083696;28;20028;-71
2021/12/24 09:06:49;;;;;;;98.03;14.15;;;7.60;99.90;;;;;;5082730;28;20048;-72
2021/12/24 09:09:15;;;;;;;45.25;11.05;;;7.70;99.90;;;;;;5083599;28;20203;-73
2021/12/24 09:11:44;;;;;;;51.35;11.90;;;7.70;99.90;;;;;;5082763;28;20024;-72
2021/12/24 09:14:10;;;;;;;57.20;9.98;;;7.70;99.90;;;;;;5082014;28;20017;-73
2021/12/24 09:16:37;;;;;;;42.03;9.68;;;7.80;99.90;;;;;;5082680;28;20215;-74
2021/12/24 09:19:08;;;;;;;38.53;10.93;;;7.80;99.90;;;;;;5083617;28;20020;-72
2021/12/24 09:21:34;;;;;;;44.22;10.50;;;7.80;99.90;;;;;;5083483;28;20268;-74
2021/12/24 09:24:01;;;;;;;36.47;9.10;;;7.80;99.90;;;;;;5083551;28;20028;-72
2021/12/24 09:26:29;;;;;;;35.90;9.15;;;7.90;99.90;;;;;;5082269;28;20052;-73
2021/12/24 09:28:56;;;;;;;40.83;9.70;;;7.90;99.90;;;;;;5083075;28;20040;-73
2021/12/24 09:31:23;;;;;;;32.17;10.18;;;7.90;99.90;;;;;;5083622;28;20268;-72
2021/12/24 09:33:50;;;;;;;41.00;9.80;;;7.90;99.90;;;;;;5082331;28;20028;-72
2021/12/24 09:36:22;;;;;;;39.03;9.55;;;8.00;99.90;;;;;;5083566;28;20207;-71
2021/12/24 09:38:47;;;;;;;43.03;10.30;;;8.00;99.90;;;;;;5083445;28;20303;-71
2021/12/24 09:41:13;;;;;;;54.85;13.02;;;8.00;99.90;;;;;;5082332;28;20062;-72
2021/12/24 09:43:39;;;;;;;55.05;12.02;;;8.10;99.90;;;;;;5087166;28;20032;-72
2021/12/24 09:46:04;;;;;;;47.47;10.88;;;8.20;99.90;;;;;;5085337;28;20330;-71
2021/12/24 09:48:30;;;;;;;47.80;10.55;;;8.20;99.90;;;;;;5086820;28;20020;-72
2021/12/24 09:50:56;;;;;;;44.28;9.95;;;8.20;99.90;;;;;;5087154;28;20372;-74
2021/12/24 09:53:21;;;;;;;48.30;10.25;;;8.30;99.90;;;;;;5086928;28;20032;-73
2021/12/24 09:55:47;;;;;;;27.73;9.02;;;8.30;99.90;;;;;;5085740;28;20020;-72
2021/12/24 09:58:13;;;;;;;40.53;9.07;;;8.40;99.90;;;;;;5087000;28;20314;-72
2021/12/24 10:00:40;;;;;;;38.17;9.55;;;8.40;99.90;;;;;;5086524;28;20035;-72
2021/12/24 10:03:06;;;;;;;33.13;8.85;;;8.50;99.90;;;;;;5086843;28;20312;-73
2021/12/24 10:05:39;;;;;;;34.80;8.32;;;8.50;99.90;;;;;;5086460;28;20078;-72
2021/12/24 10:08:08;;;;;;;43.10;9.07;;;8.60;99.90;;;;;;5086264;28;20312;-72
2021/12/24 10:10:36;;;;;;;32.42;8.90;;;8.60;99.90;;;;;;5068954;28;20020;-73
2021/12/24 10:13:26;;;;;;;32.13;7.95;;;8.70;99.90;;;;;;5085305;28;20027;-73
2021/12/24 10:15:59;;;;;;;35.03;7.53;;;8.80;99.90;;;;;;5070383;28;20021;-74
2021/12/24 10:18:28;;;;;;;33.70;7.88;;;8.90;99.90;;;;;;5086501;28;20016;-73
2021/12/24 10:20:59;;;;;;;38.90;8.60;;;9.00;99.90;;;;;;5085476;28;20028;-74
2021/12/24 10:23:44;;;;;;;31.25;7.90;;;9.00;99.90;;;;;;5086464;28;20031;-74
2021/12/24 10:26:16;;;;;;;28.17;8.50;;;9.00;99.90;;;;;;5085033;28;20040;-73
2021/12/24 10:29:10;;;;;;;29.50;7.38;;;9.10;99.90;;;;;;5085017;28;20039;-74
2021/12/24 10:31:54;;;;;;;24.95;6.60;;;9.10;99.90;;;;;;5085406;28;20362;-73
2021/12/24 10:34:30;;;;;;;27.10;6.88;;;9.20;99.90;;;;;;5085302;28;20024;-71
2021/12/24 10:37:19;;;;;;;30.33;6.68;;;9.20;99.90;;;;;;5086249;28;20028;-74
2021/12/24 10:39:51;;;;;;;22.10;5.95;;;9.20;99.90;;;;;;5090197;28;20017;-71
2021/12/24 10:42:22;;;;;;;29.48;7.00;;;9.20;99.90;;;;;;5098287;28;20062;-73
2021/12/24 10:44:50;;;;;;;22.73;6.93;;;9.30;99.90;;;;;;5096077;28;20032;-72
2021/12/24 10:47:25;;;;;;;34.13;7.13;;;9.30;99.90;;;;;;5094018;28;20088;-73
2021/12/24 10:53:11;;;;;;;30.45;7.85;;;9.30;99.90;;;;;;5084375;28;20047;-74
2021/12/24 10:55:46;;;;;;;29.90;6.88;;;9.40;99.90;;;;;;5085100;28;20192;-73
2021/12/24 10:58:17;;;;;;;30.73;8.10;;;9.40;99.90;;;;;;5084636;28;20028;-74
2021/12/24 11:01:00;;;;;;;27.98;7.65;;;9.40;99.90;;;;;;5085377;28;20028;-75
2021/12/24 11:03:32;;;;;;;25.52;7.07;;;9.40;99.90;;;;;;5084552;28;20048;-73
2021/12/24 11:06:13;;;;;;;27.55;7.72;;;9.30;99.90;;;;;;5084469;28;20020;-73
2021/12/24 11:08:39;;;;;;;29.63;7.05;;;9.40;99.90;;;;;;5085560;28;20223;-73
2021/12/24 11:11:07;;;;;;;23.33;7.07;;;9.50;99.90;;;;;;5084588;28;20048;-74
2021/12/24 11:13:40;;;;;;;23.77;6.63;;;9.50;99.90;;;;;;5084416;28;20047;-75
2021/12/24 11:16:07;;;;;;;26.65;7.07;;;9.50;99.90;;;;;;5083752;28;20020;-74
2021/12/24 11:18:38;;;;;;;20.23;7.50;;;9.60;99.90;;;;;;5067565;28;20027;-74
2021/12/24 11:21:11;;;;;;;22.35;6.25;;;9.60;99.90;;;;;;5084140;28;20082;-72
2021/12/24 11:23:41;;;;;;;20.70;5.60;;;9.60;99.90;;;;;;5085298;28;20096;-73
2021/12/24 11:26:10;;;;;;;21.48;6.88;;;9.60;99.90;;;;;;5084884;28;20044;-72
2021/12/24 11:28:37;;;;;;;21.52;5.05;;;9.60;99.90;;;;;;5084620;28;20024;-72
2021/12/24 11:31:06;;;;;;;19.92;5.50;;;9.60;99.90;;;;;;5083940;28;20072;-73
2021/12/24 11:33:33;;;;;;;17.23;5.55;;;9.60;99.90;;;;;;5067456;28;20020;-72
2021/12/24 11:36:02;;;;;;;15.18;5.88;;;9.70;99.90;;;;;;5084884;28;20298;-72
2021/12/24 11:38:32;;;;;;;22.08;6.22;;;9.70;99.90;;;;;;5083660;28;20031;-73
2021/12/24 11:41:00;;;;;;;23.13;6.55;;;9.70;99.90;;;;;;5066793;28;20026;-73
2021/12/24 11:43:31;;;;;;;23.88;6.05;;;9.70;99.90;;;;;;5083779;28;20032;-73
2021/12/24 11:45:59;;;;;;;21.52;7.05;;;9.70;99.90;;;;;;5067194;28;20020;-73
2021/12/24 11:48:28;;;;;;;24.23;6.63;;;9.80;99.90;;;;;;5083542;28;20243;-73
2021/12/24 11:50:55;;;;;;;18.13;6.03;;;9.80;99.90;;;;;;5084669;28;20048;-72
2021/12/24 11:53:21;;;;;;;26.10;5.80;;;9.80;99.90;;;;;;5084808;28;20028;-72
2021/12/24 11:55:48;;;;;;;19.42;5.93;;;9.80;99.90;;;;;;5085028;28;20122;-72
2021/12/24 11:58:20;;;;;;;18.73;6.20;;;9.80;99.90;;;;;;5083565;28;20069;-73
2021/12/24 12:00:49;;;;;;;17.92;5.53;;;9.80;99.90;;;;;;5084600;28;20019;-72
2021/12/24 12:03:40;;;;;;;19.80;6.10;;;9.80;99.90;;;;;;5084597;28;20024;-75
2021/12/24 12:06:32;;;;;;;18.95;6.43;;;9.80;99.90;;;;;;5083282;28;20371;-73
2021/12/24 12:09:00;;;;;;;19.85;6.57;;;9.80;99.90;;;;;;5083323;28;20081;-75
2021/12/24 12:11:30;;;;;;;20.20;6.15;;;9.90;99.90;;;;;;5084439;28;20024;-73
2021/12/24 12:14:01;;;;;;;18.60;5.70;;;9.90;99.90;;;;;;5067238;28;20238;-73
2021/12/24 12:17:01;;;;;;;18.77;6.65;;;9.90;99.90;;;;;;5082041;28;20016;-74
2021/12/24 12:19:38;;;;;;;22.30;6.45;;;9.90;99.90;;;;;;5084220;28;20274;-73
2021/12/24 12:22:30;;;;;;;23.52;6.20;;;9.90;99.90;;;;;;5084252;28;20020;-74
2021/12/24 12:25:02;;;;;;;18.08;5.90;;;9.90;99.90;;;;;;5084280;28;20200;-73
2021/12/24 12:27:33;;;;;;;18.88;6.18;;;9.90;99.90;;;;;;5082857;28;20071;-72
2021/12/24 12:30:24;;;;;;;18.17;5.43;;;9.90;99.90;;;;;;5082669;28;20040;-73
2021/12/24 12:32:53;;;;;;;16.02;5.25;;;9.90;99.90;;;;;;5083246;28;20016;-73
2021/12/24 12:35:19;;;;;;;15.98;5.88;;;9.90;99.90;;;;;;5083068;28;20052;-72
2021/12/24 12:37:51;;;;;;;19.48;6.28;;;9.90;99.90;;;;;;5066094;28;20035;-74
2021/12/24 12:40:32;;;;;;;13.55;5.65;;;10.00;99.90;;;;;;5066480;28;20039;-73
2021/12/24 12:43:10;;;;;;;16.23;6.15;;;10.00;99.90;;;;;;5082798;28;20401;-73
2021/12/24 12:45:55;;;;;;;15.23;6.28;;;10.00;99.90;;;;;;5082957;28;20322;-72
2021/12/24 12:48:24;;;;;;;17.58;6.40;;;10.00;99.90;;;;;;5062725;28;20092;-73
2021/12/24 12:50:53;;;;;;;22.13;6.72;;;10.00;99.90;;;;;;5063800;28;20045;-73
2021/12/24 12:53:35;;;;;;;19.60;7.90;;;10.00;99.90;;;;;;5063906;28;20013;-73
2021/12/24 12:56:14;;;;;;;16.83;6.57;;;10.00;99.90;;;;;;5062579;28;20324;-73
2021/12/24 12:58:42;;;;;;;17.40;6.13;;;10.00;99.90;;;;;;5063479;28;20297;-72
2021/12/24 13:01:13;;;;;;;17.10;6.15;;;10.10;99.90;;;;;;5062683;28;20239;-73
2021/12/24 13:04:13;;;;;;;14.87;5.57;;;10.00;99.90;;;;;;5063713;28;20338;-73
2021/12/24 13:06:55;;;;;;;12.98;5.45;;;10.00;99.90;;;;;;5050576;28;20181;-73
2021/12/24 13:09:24;;;;;;;15.40;5.68;;;10.00;99.90;;;;;;5062404;28;20100;-74
2021/12/24 13:11:54;;;;;;;17.02;5.93;;;10.10;99.90;;;;;;5063882;28;20092;-74
2021/12/24 13:14:23;;;;;;;19.20;6.13;;;10.10;99.90;;;;;;5046390;28;20071;-73
2021/12/24 13:17:04;;;;;;;13.98;5.82;;;10.10;99.90;;;;;;5064680;28;20311;-72
2021/12/24 13:19:58;;;;;;;22.83;6.75;;;10.10;99.90;;;;;;5067444;28;20020;-73
2021/12/24 13:22:28;;;;;;;14.82;5.40;;;10.10;99.90;;;;;;5066509;28;20251;-74
2021/12/24 13:25:11;;;;;;;14.88;6.35;;;10.10;99.90;;;;;;5067503;28;20025;-74
2021/12/24 13:27:41;;;;;;;17.58;6.13;;;10.10;99.90;;;;;;5066197;28;20057;-74
2021/12/24 13:30:31;;;;;;;16.63;6.10;;;10.10;99.90;;;;;;5048664;28;20108;-75
2021/12/24 13:33:00;;;;;;;21.17;6.82;;;10.10;99.90;;;;;;5066644;28;20024;-74
2021/12/24 13:35:47;;;;;;;15.18;6.88;;;10.20;99.90;;;;;;5066277;28;20060;-73
2021/12/24 13:38:15;;;;;;;12.68;6.35;;;10.20;99.90;;;;;;5066419;28;20048;-74
2021/12/24 13:40:42;;;;;;;11.77;5.85;;;10.30;99.90;;;;;;5049517;28;20031;-74
2021/12/24 13:43:12;;;;;;;17.55;6.28;;;10.40;99.90;;;;;;5067250;28;20025;-74
2021/12/24 13:45:40;;;;;;;15.55;5.95;;;10.40;99.90;;;;;;5049769;28;20116;-73
2021/12/24 13:48:12;;;;;;;16.40;5.90;;;10.40;99.90;;;;;;5090856;28;20024;-74
2021/12/24 13:56:46;;;;;;;18.33;6.85;;;10.40;99.90;;;;;;5081475;28;20031;-75
2021/12/24 13:59:15;;;;;;;15.57;6.47;;;10.40;99.90;;;;;;5091398;28;20032;-74
2021/12/24 14:01:42;;;;;;;20.50;7.25;;;10.40;99.90;;;;;;5069684;28;20025;-74
2021/12/24 14:04:09;;;;;;;19.08;7.07;;;10.40;99.90;;;;;;5085844;28;20024;-75
2021/12/24 14:06:40;;;;;;;15.88;6.18;;;10.40;99.90;;;;;;5086485;28;20016;-73
2021/12/24 14:09:09;;;;;;;18.23;6.63;;;10.50;99.90;;;;;;5086542;28;20066;-74
2021/12/24 14:11:36;;;;;;;18.73;7.13;;;10.50;99.90;;;;;;5085468;28;20031;-73
2021/12/24 14:14:07;;;;;;;12.68;6.05;;;10.50;99.90;;;;;;5086784;28;20040;-73
2021/12/24 14:19:29;;;;;;;14.07;6.80;;;10.50;99.90;;;;;;5083690;28;20307;-73
2021/12/24 14:22:11;;;;;;;10.95;6.20;;;10.50;99.90;;;;;;5085591;28;20087;-74